createdAt,value
2024-02-13T00:02:27.692Z,96.60
2024-02-13T00:05:29.402Z,96.40
2024-02-13T00:08:40.824Z,96.40
2024-02-13T00:11:48.035Z,96.40
2024-02-13T00:14:50.131Z,96.60
2024-02-13T00:17:52.504Z,96.60
2024-02-13T00:20:55.502Z,96.60
2024-02-13T00:23:58.556Z,96.70
2024-02-13T00:27:00.596Z,96.80
2024-02-13T00:30:06.972Z,96.70
2024-02-13T00:33:08.710Z,96.80
2024-02-13T00:36:10.699Z,97.10
2024-02-13T00:39:12.350Z,97.20
2024-02-13T00:42:14.057Z,97.50
2024-02-13T00:45:15.954Z,97.90
2024-02-13T00:48:19.127Z,98.10
2024-02-13T00:51:21.108Z,98.20
2024-02-13T00:54:25.915Z,98.50
2024-02-13T00:57:30.248Z,98.60
2024-02-13T01:00:32.257Z,98.60
2024-02-13T01:03:36.575Z,98.60
2024-02-13T01:06:38.402Z,98.80
2024-02-13T01:09:40.134Z,98.90
2024-02-13T01:12:41.780Z,98.90
2024-02-13T01:15:43.462Z,98.80
2024-02-13T01:18:45.341Z,98.70
2024-02-13T01:21:47.153Z,98.80
2024-02-13T01:24:48.777Z,98.80
2024-02-13T01:27:50.583Z,98.70
2024-02-13T01:30:52.985Z,98.90
2024-02-13T01:33:54.695Z,98.70
2024-02-13T01:36:58.980Z,98.80
2024-02-13T01:40:00.693Z,98.80
2024-02-13T01:43:03.268Z,98.70
2024-02-13T01:46:07.257Z,98.90
2024-02-13T01:49:10.238Z,99.00
2024-02-13T01:52:13.550Z,99.10
2024-02-13T01:55:17.317Z,99.30
2024-02-13T01:58:20.694Z,99.30
2024-02-13T02:01:22.503Z,99.30
2024-02-13T02:04:27.406Z,99.30
2024-02-13T02:07:29.309Z,99.50
2024-02-13T02:10:30.969Z,99.50
2024-02-13T02:13:32.848Z,99.40
2024-02-13T02:16:34.522Z,99.30
2024-02-13T02:19:36.756Z,99.30
2024-02-13T02:22:38.409Z,99.40
2024-02-13T02:25:40.728Z,99.40
2024-02-13T02:28:43.737Z,99.50
2024-02-13T02:31:45.356Z,99.40
2024-02-13T02:34:47.115Z,99.50
2024-02-13T02:37:51.651Z,99.80
2024-02-13T02:40:53.360Z,99.90
2024-02-13T02:43:55.033Z,99.90
2024-02-13T02:46:56.963Z,100.00
2024-02-13T02:49:58.600Z,99.90
2024-02-13T02:53:00.242Z,99.80
2024-02-13T02:56:02.906Z,99.90
2024-02-13T02:59:04.985Z,99.90
2024-02-13T03:02:08.779Z,100.00
2024-02-13T03:05:10.852Z,99.90
2024-02-13T03:08:13.632Z,100.00
2024-02-13T03:11:15.403Z,99.80
2024-02-13T03:14:17.224Z,99.90
2024-02-13T03:17:19.576Z,100.00
2024-02-13T03:20:21.840Z,100.00
2024-02-13T03:23:23.549Z,100.00
2024-02-13T03:26:25.537Z,100.00
2024-02-13T03:29:28.150Z,100.00
2024-02-13T03:32:30.438Z,100.00
2024-02-13T03:35:33.093Z,100.00
2024-02-13T03:38:34.961Z,100.00
2024-02-13T03:41:43.376Z,100.00
2024-02-13T03:44:46.879Z,100.00
2024-02-13T03:47:48.770Z,100.00
2024-02-13T03:50:50.655Z,100.00
2024-02-13T03:53:52.350Z,100.00
2024-02-13T03:56:53.985Z,100.00
2024-02-13T03:59:55.768Z,100.00
2024-02-13T04:02:57.826Z,100.00
2024-02-13T04:05:59.639Z,100.00
2024-02-13T04:09:03.968Z,100.00
2024-02-13T04:12:10.408Z,100.00
2024-02-13T04:15:14.450Z,100.00
2024-02-13T04:18:17.369Z,100.00
2024-02-13T04:21:19.258Z,100.00
2024-02-13T04:24:20.886Z,100.00
2024-02-13T04:27:22.737Z,100.00
2024-02-13T04:30:24.416Z,100.00
2024-02-13T04:33:26.268Z,100.00
2024-02-13T04:36:28.882Z,100.00
2024-02-13T04:39:31.649Z,100.00
2024-02-13T04:42:37.828Z,100.00
2024-02-13T04:45:39.636Z,100.00
2024-02-13T04:48:41.452Z,100.00
2024-02-13T04:51:43.936Z,100.00
2024-02-13T04:54:45.769Z,100.00
2024-02-13T04:57:48.077Z,100.00
2024-02-13T05:01:02.741Z,100.00
2024-02-13T05:04:17.032Z,100.00
2024-02-13T05:07:22.454Z,100.00
2024-02-13T05:10:24.609Z,100.00
2024-02-13T05:13:26.404Z,100.00
2024-02-13T05:16:29.011Z,100.00
2024-02-13T05:19:30.926Z,100.00
2024-02-13T05:22:32.736Z,100.00
2024-02-13T05:25:34.438Z,100.00
2024-02-13T05:28:38.954Z,100.00
2024-02-13T05:31:40.676Z,100.00
2024-02-13T05:34:42.684Z,100.00
2024-02-13T05:37:45.415Z,100.00
2024-02-13T05:40:47.190Z,100.00
2024-02-13T05:43:48.884Z,100.00
2024-02-13T05:46:51.549Z,100.00
2024-02-13T05:49:53.861Z,100.00
2024-02-13T05:52:55.552Z,100.00
2024-02-13T05:55:57.549Z,100.00
2024-02-13T05:59:02.121Z,100.00
2024-02-13T06:02:04.957Z,100.00
2024-02-13T06:05:08.061Z,100.00
2024-02-13T06:08:09.704Z,100.00
2024-02-13T06:11:12.572Z,100.00
2024-02-13T06:14:14.294Z,100.00
2024-02-13T06:17:16.188Z,100.00
2024-02-13T06:20:20.072Z,100.00
2024-02-13T06:23:22.256Z,100.00
2024-02-13T06:26:24.283Z,100.00
2024-02-13T06:29:26.088Z,100.00
2024-02-13T06:32:28.670Z,100.00
2024-02-13T06:35:30.402Z,100.00
2024-02-13T06:38:35.852Z,100.00
2024-02-13T06:41:37.662Z,100.00
2024-02-13T06:44:40.598Z,100.00
2024-02-13T06:47:42.474Z,100.00
2024-02-13T06:50:44.394Z,100.00
2024-02-13T06:53:46.192Z,100.00
2024-02-13T06:56:48.097Z,100.00
2024-02-13T06:59:50.034Z,100.00
2024-02-13T07:02:52.036Z,100.00
2024-02-13T07:05:56.953Z,100.00
2024-02-13T07:08:59.256Z,100.00
2024-02-13T07:12:01.071Z,100.00
2024-02-13T07:15:03.275Z,100.00
2024-02-13T07:18:07.680Z,100.00
2024-02-13T07:21:09.838Z,100.00
2024-02-13T07:24:11.866Z,100.00
2024-02-13T07:27:13.661Z,100.00
2024-02-13T07:30:16.273Z,100.00
2024-02-13T07:33:18.349Z,100.00
2024-02-13T07:36:20.269Z,100.00
2024-02-13T07:39:22.114Z,100.00
2024-02-13T07:42:25.290Z,100.00
2024-02-13T07:45:27.304Z,100.00
2024-02-13T07:48:29.124Z,100.00
2024-02-13T07:51:31.875Z,100.00
2024-02-13T07:54:34.189Z,100.00
2024-02-13T07:57:36.302Z,100.00
2024-02-13T08:00:38.370Z,100.00
2024-02-13T08:03:40.226Z,100.00
2024-02-13T08:06:42.733Z,100.00
2024-02-13T08:09:44.463Z,100.00
2024-02-13T08:12:46.612Z,100.00
2024-02-13T08:15:48.684Z,100.00
2024-02-13T08:18:53.417Z,100.00
2024-02-13T08:21:55.161Z,100.00
2024-02-13T08:25:01.990Z,99.60
2024-02-13T08:28:04.096Z,99.30
2024-02-13T08:31:05.929Z,99.10
2024-02-13T08:34:08.888Z,98.50
2024-02-13T08:37:12.558Z,98.00
2024-02-13T08:40:15.441Z,97.80
2024-02-13T08:43:17.125Z,97.20
2024-02-13T08:46:20.389Z,96.80
2024-02-13T08:49:22.473Z,96.60
2024-02-13T08:52:24.393Z,96.40
2024-02-13T08:55:29.197Z,96.10
2024-02-13T08:58:30.902Z,96.00
2024-02-13T09:01:33.453Z,95.60
2024-02-13T09:04:35.221Z,95.50
2024-02-13T09:07:39.328Z,94.90
2024-02-13T09:10:42.132Z,93.80
2024-02-13T09:13:46.030Z,93.10
2024-02-13T09:16:47.760Z,93.10
2024-02-13T09:19:49.520Z,93.60
2024-02-13T09:22:51.721Z,93.10
2024-02-13T09:25:53.361Z,92.30
2024-02-13T09:28:55.105Z,92.80
2024-02-13T09:31:56.785Z,92.10
2024-02-13T09:34:58.886Z,91.50
2024-02-13T09:38:00.557Z,91.00
2024-02-13T09:41:05.517Z,90.60
2024-02-13T09:44:07.855Z,90.40
2024-02-13T09:47:10.328Z,90.60
2024-02-13T09:50:15.932Z,90.20
2024-02-13T09:53:22.947Z,90.10
2024-02-13T09:56:25.053Z,90.00
2024-02-13T09:59:26.842Z,89.30
2024-02-13T10:02:29.811Z,88.60
2024-02-13T10:05:31.632Z,88.30
2024-02-13T10:08:35.955Z,88.20
2024-02-13T10:11:37.803Z,87.00
2024-02-13T10:14:40.282Z,87.40
2024-02-13T10:17:44.646Z,87.20
2024-02-13T10:20:47.450Z,87.10
2024-02-13T10:23:49.493Z,87.10
2024-02-13T10:26:52.678Z,85.30
2024-02-13T10:29:54.468Z,85.00
2024-02-13T10:32:59.008Z,85.10
2024-02-13T10:36:00.915Z,85.10
2024-02-13T10:39:09.322Z,85.70
2024-02-13T10:42:16.468Z,85.60
2024-02-13T10:45:18.984Z,85.30
2024-02-13T10:48:34.672Z,85.40
2024-02-13T10:51:38.271Z,85.60
2024-02-13T10:54:47.511Z,86.10
2024-02-13T10:57:51.402Z,86.00
2024-02-13T11:00:54.467Z,85.70
2024-02-13T11:03:59.032Z,85.70
2024-02-13T11:07:01.725Z,85.90
2024-02-13T11:10:06.862Z,84.70
2024-02-13T11:13:11.617Z,83.10
2024-02-13T11:16:15.033Z,81.40
2024-02-13T11:19:16.778Z,80.20
2024-02-13T11:22:33.733Z,78.70
2024-02-13T11:25:41.842Z,78.30
2024-02-13T11:28:46.832Z,76.00
2024-02-13T11:31:59.611Z,77.10
2024-02-13T11:35:02.673Z,74.80
2024-02-13T11:38:21.131Z,73.40
2024-02-13T11:41:23.996Z,72.10
2024-02-13T11:44:25.961Z,73.20
2024-02-13T11:47:28.507Z,72.90
2024-02-13T11:50:31.066Z,72.50
2024-02-13T11:53:33.159Z,70.70
2024-02-13T11:56:36.668Z,69.80
2024-02-13T11:59:39.428Z,69.10
2024-02-13T12:02:42.039Z,69.70
2024-02-13T12:05:43.701Z,69.40
2024-02-13T12:08:45.712Z,68.80
2024-02-13T12:11:47.863Z,69.00
2024-02-13T12:14:51.334Z,70.30
2024-02-13T12:18:01.084Z,70.00
2024-02-13T12:21:03.144Z,70.10
2024-02-13T12:24:05.472Z,69.00
2024-02-13T12:27:11.264Z,68.50
2024-02-13T12:30:13.337Z,67.00
2024-02-13T12:33:24.245Z,67.70
2024-02-13T12:36:27.358Z,67.10
2024-02-13T12:39:29.004Z,67.90
2024-02-13T12:42:32.095Z,68.40
2024-02-13T12:45:42.395Z,68.10
2024-02-13T12:48:44.264Z,68.10
2024-02-13T12:51:47.717Z,67.10
2024-02-13T12:54:50.705Z,66.40
2024-02-13T12:57:55.852Z,66.40
2024-02-13T13:01:01.128Z,66.30
2024-02-13T13:04:04.251Z,66.20
2024-02-13T13:07:07.079Z,66.80
2024-02-13T13:10:15.308Z,67.10
2024-02-13T13:13:21.201Z,67.60
2024-02-13T13:16:30.050Z,68.30
2024-02-13T13:19:33.033Z,68.30
2024-02-13T13:22:36.004Z,69.20
2024-02-13T13:25:41.397Z,68.30
2024-02-13T13:28:44.588Z,67.80
2024-02-13T13:31:48.726Z,67.50
2024-02-13T13:34:50.741Z,66.70
2024-02-13T13:37:53.491Z,66.40
2024-02-13T13:40:56.191Z,66.40
2024-02-13T13:43:57.977Z,67.70
2024-02-13T13:46:59.681Z,66.70
2024-02-13T13:50:01.851Z,65.10
2024-02-13T13:53:03.999Z,64.90
2024-02-13T13:56:06.851Z,65.40
2024-02-13T13:59:08.803Z,65.10
2024-02-13T14:02:10.519Z,64.30
2024-02-13T14:05:12.266Z,63.70
2024-02-13T14:08:13.922Z,63.10
2024-02-13T14:11:15.836Z,65.00
2024-02-13T14:14:17.703Z,63.50
2024-02-13T14:17:21.028Z,64.10
2024-02-13T14:20:22.725Z,64.20
2024-02-13T14:23:24.832Z,64.40
2024-02-13T14:26:26.850Z,64.50
2024-02-13T14:29:30.126Z,64.10
2024-02-13T14:32:32.786Z,63.70
2024-02-13T14:35:35.399Z,64.70
2024-02-13T14:38:37.288Z,64.10
2024-02-13T14:41:42.509Z,64.30
2024-02-13T14:44:44.534Z,63.50
2024-02-13T14:47:49.329Z,64.20
2024-02-13T14:50:51.282Z,63.20
2024-02-13T14:53:53.275Z,63.20
2024-02-13T14:56:55.324Z,65.30
2024-02-13T14:59:57.372Z,65.60
2024-02-13T15:03:01.169Z,65.00
2024-02-13T15:06:03.561Z,65.60
2024-02-13T15:09:05.629Z,65.40
2024-02-13T15:12:08.615Z,65.60
2024-02-13T15:15:16.735Z,66.50
2024-02-13T15:18:18.551Z,67.20
2024-02-13T15:21:20.343Z,66.80
2024-02-13T15:24:23.636Z,67.50
2024-02-13T15:27:25.600Z,67.80
2024-02-13T15:30:27.255Z,68.80
2024-02-13T15:33:30.416Z,68.10
2024-02-13T15:36:33.244Z,67.80
2024-02-13T15:39:53.677Z,68.40
2024-02-13T15:43:13.863Z,67.50
2024-02-13T15:46:34.358Z,67.30
2024-02-13T15:49:36.825Z,65.50
2024-02-13T15:52:42.488Z,64.60
2024-02-13T15:55:45.341Z,64.90
2024-02-13T15:58:47.139Z,64.60
2024-02-13T16:01:49.542Z,65.60
2024-02-13T16:04:51.264Z,64.90
2024-02-13T16:07:52.967Z,65.00
2024-02-13T16:10:56.383Z,66.50
2024-02-13T16:14:00.610Z,67.40
2024-02-13T16:17:02.544Z,68.20
2024-02-13T16:20:06.185Z,68.80
2024-02-13T16:23:08.252Z,69.50
2024-02-13T16:26:11.459Z,69.80
2024-02-13T16:29:13.361Z,70.10
2024-02-13T16:32:28.363Z,70.90
2024-02-13T16:35:37.653Z,71.10
2024-02-13T16:38:39.475Z,72.00
2024-02-13T16:41:41.172Z,72.60
2024-02-13T16:44:43.317Z,73.40
2024-02-13T16:47:45.054Z,74.00
2024-02-13T16:50:46.930Z,74.50
2024-02-13T16:53:48.671Z,75.10
2024-02-13T16:56:50.604Z,75.50
2024-02-13T16:59:56.012Z,75.80
2024-02-13T17:02:57.999Z,76.00
2024-02-13T17:06:05.041Z,76.10
2024-02-13T17:09:07.322Z,76.30
2024-02-13T17:12:09.269Z,76.60
2024-02-13T17:15:11.472Z,76.80
2024-02-13T17:18:16.411Z,77.00
2024-02-13T17:21:18.216Z,77.50
2024-02-13T17:24:19.854Z,77.90
2024-02-13T17:27:22.470Z,78.40
2024-02-13T17:30:24.207Z,78.50
2024-02-13T17:33:26.189Z,78.80
2024-02-13T17:36:27.958Z,79.00
2024-02-13T17:39:29.570Z,78.90
2024-02-13T17:42:33.194Z,78.80
2024-02-13T17:45:34.999Z,78.70
2024-02-13T17:48:37.155Z,78.70
2024-02-13T17:51:38.827Z,78.40
2024-02-13T17:54:40.507Z,78.20
2024-02-13T17:57:42.603Z,78.20
2024-02-13T18:00:45.034Z,78.10
2024-02-13T18:03:46.878Z,78.10
2024-02-13T18:06:50.279Z,78.10
2024-02-13T18:09:52.208Z,78.10
2024-02-13T18:12:58.543Z,77.90
2024-02-13T18:16:00.208Z,77.90
2024-02-13T18:19:03.863Z,77.80
2024-02-13T18:22:05.789Z,77.90
2024-02-13T18:25:09.915Z,77.90
2024-02-13T18:28:14.748Z,77.70
2024-02-13T18:31:16.716Z,77.90
2024-02-13T18:34:18.674Z,77.80
2024-02-13T18:37:20.414Z,77.50
2024-02-13T18:40:22.624Z,77.60
2024-02-13T18:43:28.826Z,77.40
2024-02-13T18:46:32.142Z,77.30
2024-02-13T18:49:34.079Z,77.40
2024-02-13T18:52:35.877Z,77.30
2024-02-13T18:55:37.953Z,77.40
2024-02-13T18:58:39.926Z,77.30
2024-02-13T19:01:41.617Z,77.20
2024-02-13T19:04:43.340Z,77.40
2024-02-13T19:07:45.137Z,77.20
2024-02-13T19:10:49.430Z,77.00
2024-02-13T19:13:51.279Z,77.10
2024-02-13T19:16:54.199Z,77.10
2024-02-13T19:19:55.852Z,77.10
2024-02-13T19:22:57.494Z,76.90
2024-02-13T19:25:59.266Z,76.70
2024-02-13T19:29:01.771Z,76.30
2024-02-13T19:32:05.283Z,75.50
2024-02-13T19:35:07.232Z,74.80
2024-02-13T19:38:15.067Z,74.30
2024-02-13T19:41:16.996Z,74.00
2024-02-13T19:44:20.014Z,73.80
2024-02-13T19:47:21.997Z,73.70
2024-02-13T19:50:24.094Z,73.80
2024-02-13T19:53:25.906Z,73.70
2024-02-13T19:56:29.018Z,73.80
2024-02-13T19:59:30.910Z,73.80
2024-02-13T20:02:32.754Z,73.40
2024-02-13T20:05:34.851Z,73.40
2024-02-13T20:08:36.978Z,73.50
2024-02-13T20:11:41.510Z,73.30
2024-02-13T20:14:45.287Z,73.30
2024-02-13T20:17:48.289Z,73.70
2024-02-13T20:20:50.089Z,73.40
2024-02-13T20:23:51.873Z,73.70
2024-02-13T20:26:54.098Z,73.60
2024-02-13T20:29:55.878Z,73.80
2024-02-13T20:32:57.618Z,74.10
2024-02-13T20:36:07.876Z,74.20
2024-02-13T20:39:10.999Z,74.30
2024-02-13T20:42:12.772Z,74.60
2024-02-13T20:45:21.188Z,74.40
2024-02-13T20:48:24.847Z,74.40
2024-02-13T20:51:29.926Z,74.70
2024-02-13T20:54:32.438Z,74.70
2024-02-13T20:57:34.208Z,74.70
2024-02-13T21:00:36.340Z,75.00
2024-02-13T21:03:38.103Z,74.90
2024-02-13T21:06:43.272Z,75.20
2024-02-13T21:09:47.263Z,75.20
2024-02-13T21:12:50.259Z,75.30
2024-02-13T21:15:51.918Z,75.40
2024-02-13T21:18:53.830Z,75.30
2024-02-13T21:22:14.402Z,75.50
2024-02-13T21:25:17.068Z,75.70
2024-02-13T21:28:19.051Z,76.00
2024-02-13T21:31:20.792Z,76.10
2024-02-13T21:34:26.959Z,76.30
2024-02-13T21:37:28.846Z,76.50
2024-02-13T21:40:33.483Z,76.70
2024-02-13T21:43:35.356Z,76.90
2024-02-13T21:46:37.309Z,77.10
2024-02-13T21:49:39.057Z,77.60
2024-02-13T21:52:41.677Z,78.00
2024-02-13T21:55:43.322Z,78.10
2024-02-13T21:58:47.824Z,78.20
2024-02-13T22:01:49.479Z,78.40
2024-02-13T22:04:52.172Z,78.70
2024-02-13T22:07:53.890Z,78.80
2024-02-13T22:10:55.503Z,79.20
2024-02-13T22:13:57.189Z,79.50
2024-02-13T22:16:58.977Z,79.50
2024-02-13T22:20:01.001Z,79.60
2024-02-13T22:23:03.907Z,79.80
2024-02-13T22:26:06.472Z,80.10
2024-02-13T22:29:09.160Z,80.00
2024-02-13T22:32:12.569Z,80.10
2024-02-13T22:35:14.416Z,80.20
2024-02-13T22:38:16.388Z,80.10
2024-02-13T22:41:18.066Z,80.20
2024-02-13T22:44:21.344Z,80.10
2024-02-13T22:47:23.101Z,80.20
2024-02-13T22:50:26.062Z,80.40
2024-02-13T22:53:27.936Z,80.50
2024-02-13T22:56:29.876Z,80.50
2024-02-13T22:59:34.866Z,80.60
2024-02-13T23:02:38.094Z,80.70
2024-02-13T23:05:40.002Z,81.00
2024-02-13T23:08:41.983Z,81.20
2024-02-13T23:11:47.027Z,81.10
2024-02-13T23:14:48.875Z,81.10
2024-02-13T23:17:50.636Z,81.20
2024-02-13T23:20:54.139Z,81.40
2024-02-13T23:23:55.982Z,81.40
2024-02-13T23:26:58.984Z,81.60
2024-02-13T23:30:00.938Z,81.80
2024-02-13T23:33:03.157Z,82.00
2024-02-13T23:36:06.030Z,82.20
2024-02-13T23:39:09.414Z,82.10
2024-02-13T23:42:11.221Z,81.90
2024-02-13T23:45:13.439Z,82.20
2024-02-13T23:48:16.252Z,82.10
2024-02-13T23:51:18.160Z,81.90
2024-02-13T23:54:20.419Z,81.80
2024-02-13T23:57:23.072Z,82.00
